createdAt,value
2022-07-26T00:01:38.666Z,5.15
2022-07-26T00:04:05.427Z,7.57
2022-07-26T00:06:32.020Z,7.53
2022-07-26T00:08:58.618Z,4.47
2022-07-26T00:11:25.713Z,6.50
2022-07-26T00:13:52.364Z,6.35
2022-07-26T00:16:19.478Z,6.03
2022-07-26T00:18:47.457Z,8.98
2022-07-26T00:21:14.137Z,5.43
2022-07-26T00:23:40.723Z,8.32
2022-07-26T00:26:07.512Z,7.40
2022-07-26T00:28:34.072Z,7.80
2022-07-26T00:31:00.811Z,6.85
2022-07-26T00:33:27.408Z,7.63
2022-07-26T00:35:53.950Z,9.65
2022-07-26T00:38:20.534Z,7.18
2022-07-26T00:40:47.125Z,9.00
2022-07-26T00:43:13.721Z,8.63
2022-07-26T00:45:40.367Z,8.02
2022-07-26T00:48:06.992Z,8.23
2022-07-26T00:50:33.663Z,11.23
2022-07-26T00:53:01.006Z,13.88
2022-07-26T00:55:27.782Z,6.47
2022-07-26T00:57:54.466Z,6.65
2022-07-26T01:00:27.701Z,7.53
2022-07-26T01:02:55.350Z,13.18
2022-07-26T01:05:23.097Z,4.50
2022-07-26T01:07:49.961Z,8.55
2022-07-26T01:10:16.750Z,6.78
2022-07-26T01:12:43.366Z,6.90
2022-07-26T01:15:11.655Z,8.07
2022-07-26T01:17:38.675Z,6.82
2022-07-26T01:20:07.335Z,7.25
2022-07-26T01:22:33.871Z,7.47
2022-07-26T01:25:00.400Z,4.60
2022-07-26T01:27:32.036Z,7.07
2022-07-26T01:30:00.582Z,6.88
2022-07-26T01:32:27.369Z,10.57
2022-07-26T01:34:53.911Z,9.38
2022-07-26T01:37:20.458Z,9.98
2022-07-26T01:39:46.998Z,6.38
2022-07-26T01:42:13.614Z,5.10
2022-07-26T01:44:40.604Z,5.82
2022-07-26T01:47:07.173Z,8.65
2022-07-26T01:49:33.712Z,5.68
2022-07-26T01:52:00.367Z,6.95
2022-07-26T01:54:27.070Z,7.25
2022-07-26T01:56:53.713Z,4.15
2022-07-26T01:59:20.245Z,10.00
2022-07-26T02:01:46.969Z,9.88
2022-07-26T02:04:33.612Z,8.98
2022-07-26T02:07:00.266Z,10.73
2022-07-26T02:09:27.864Z,9.93
2022-07-26T02:11:58.140Z,11.88
2022-07-26T02:14:28.017Z,6.22
2022-07-26T02:16:59.900Z,10.30
2022-07-26T02:19:28.037Z,6.63
2022-07-26T02:21:55.122Z,6.45
2022-07-26T02:24:22.210Z,7.35
2022-07-26T02:26:48.811Z,4.40
2022-07-26T02:29:15.442Z,8.02
2022-07-26T02:31:42.052Z,7.97
2022-07-26T02:34:15.179Z,4.93
2022-07-26T02:36:41.877Z,12.23
2022-07-26T02:39:08.518Z,8.00
2022-07-26T02:41:35.134Z,6.82
2022-07-26T02:44:01.717Z,10.15
2022-07-26T02:46:28.485Z,7.47
2022-07-26T02:48:55.317Z,9.68
2022-07-26T02:51:22.149Z,7.32
2022-07-26T02:53:48.701Z,6.38
2022-07-26T02:56:15.242Z,9.50
2022-07-26T02:58:41.992Z,7.90
2022-07-26T03:01:08.769Z,5.65
2022-07-26T03:03:36.425Z,8.02
2022-07-26T03:06:03.474Z,7.93
2022-07-26T03:08:30.038Z,6.28
2022-07-26T03:10:56.606Z,8.55
2022-07-26T03:13:23.152Z,9.65
2022-07-26T03:15:49.806Z,9.43
2022-07-26T03:18:16.434Z,6.65
2022-07-26T03:20:43.035Z,9.63
2022-07-26T03:23:09.581Z,11.07
2022-07-26T03:25:37.610Z,10.20
2022-07-26T03:28:05.041Z,7.28
2022-07-26T03:30:31.861Z,9.55
2022-07-26T03:32:58.496Z,6.97
2022-07-26T03:35:25.480Z,9.82
2022-07-26T03:37:52.649Z,11.98
2022-07-26T03:40:19.371Z,13.98
2022-07-26T03:42:46.681Z,16.55
2022-07-26T03:45:14.667Z,16.23
2022-07-26T03:47:42.135Z,12.57
2022-07-26T03:50:09.035Z,11.90
2022-07-26T03:52:35.535Z,10.73
2022-07-26T03:55:22.306Z,8.63
2022-07-26T03:57:49.176Z,12.13
2022-07-26T04:00:15.876Z,13.95
2022-07-26T04:02:42.502Z,12.40
2022-07-26T04:05:09.585Z,12.15
2022-07-26T04:07:52.814Z,8.32
2022-07-26T04:10:21.232Z,10.20
2022-07-26T04:12:47.958Z,11.18
2022-07-26T04:15:16.841Z,11.32
2022-07-26T04:17:43.662Z,8.38
2022-07-26T04:20:11.358Z,9.73
2022-07-26T04:22:38.988Z,10.82
2022-07-26T04:25:06.748Z,11.35
2022-07-26T04:27:34.161Z,14.95
2022-07-26T04:30:00.759Z,18.45
2022-07-26T04:32:27.753Z,14.07
2022-07-26T04:34:54.348Z,8.32
2022-07-26T04:37:20.848Z,14.02
2022-07-26T04:39:51.656Z,11.88
2022-07-26T04:42:21.124Z,9.82
2022-07-26T04:44:47.666Z,19.73
2022-07-26T04:47:14.214Z,14.32
2022-07-26T04:49:40.781Z,13.70
2022-07-26T04:52:07.393Z,14.73
2022-07-26T04:54:33.930Z,12.45
2022-07-26T04:57:00.543Z,13.38
2022-07-26T04:59:27.059Z,12.07
2022-07-26T05:01:53.683Z,13.82
2022-07-26T05:04:20.320Z,14.27
2022-07-26T05:06:46.873Z,16.13
2022-07-26T05:09:13.470Z,11.48
2022-07-26T05:11:40.060Z,18.88
2022-07-26T05:14:06.957Z,15.68
2022-07-26T05:16:33.736Z,12.45
2022-07-26T05:19:05.757Z,16.40
2022-07-26T05:21:32.288Z,17.75
2022-07-26T05:23:58.831Z,15.85
2022-07-26T05:26:25.600Z,15.93
2022-07-26T05:28:52.107Z,12.60
2022-07-26T05:31:18.683Z,10.40
2022-07-26T05:33:45.346Z,15.68
2022-07-26T05:36:11.926Z,16.30
2022-07-26T05:38:38.576Z,14.10
2022-07-26T05:41:05.496Z,15.48
2022-07-26T05:43:41.581Z,15.82
2022-07-26T05:46:09.975Z,12.98
2022-07-26T05:48:37.144Z,13.73
2022-07-26T05:51:04.012Z,11.65
2022-07-26T05:53:30.588Z,12.95
2022-07-26T05:55:57.124Z,15.43
2022-07-26T05:58:23.894Z,14.32
2022-07-26T06:00:50.453Z,14.05
2022-07-26T06:03:22.892Z,12.20
2022-07-26T06:05:51.039Z,18.23
2022-07-26T06:08:18.657Z,15.68
2022-07-26T06:10:46.121Z,17.63
2022-07-26T06:13:12.996Z,13.48
2022-07-26T06:15:39.628Z,17.75
2022-07-26T06:18:06.689Z,18.48
2022-07-26T06:20:33.678Z,13.57
2022-07-26T06:23:00.693Z,13.80
2022-07-26T06:25:27.500Z,18.10
2022-07-26T06:27:53.996Z,17.65
2022-07-26T06:30:20.536Z,18.27
2022-07-26T06:32:47.219Z,20.15
2022-07-26T06:35:14.924Z,15.73
2022-07-26T06:37:42.907Z,15.52
2022-07-26T06:40:10.470Z,14.65
2022-07-26T06:42:37.582Z,14.23
2022-07-26T06:45:04.820Z,14.75
2022-07-26T06:47:31.357Z,14.23
2022-07-26T06:49:57.939Z,17.83
2022-07-26T06:52:24.529Z,17.80
2022-07-26T06:54:51.137Z,22.48
2022-07-26T06:57:17.786Z,22.67
2022-07-26T06:59:44.410Z,20.23
2022-07-26T07:02:11.022Z,19.63
2022-07-26T07:04:37.645Z,31.67
2022-07-26T07:07:06.012Z,18.13
2022-07-26T07:09:33.111Z,20.08
2022-07-26T07:12:08.426Z,14.82
2022-07-26T07:14:37.297Z,18.95
2022-07-26T07:17:03.957Z,11.07
2022-07-26T07:19:39.814Z,21.52
2022-07-26T07:22:11.396Z,15.40
2022-07-26T07:24:38.748Z,12.20
2022-07-26T07:27:05.652Z,21.48
2022-07-26T07:29:33.600Z,17.40
2022-07-26T07:32:00.263Z,15.68
2022-07-26T07:34:30.136Z,18.25
2022-07-26T07:36:57.546Z,11.90
2022-07-26T07:39:24.204Z,18.00
2022-07-26T07:42:01.364Z,18.90
2022-07-26T07:44:28.176Z,18.38
2022-07-26T07:46:54.805Z,17.13
2022-07-26T07:49:22.276Z,16.27
2022-07-26T07:51:48.900Z,11.32
2022-07-26T07:54:16.046Z,15.18
2022-07-26T07:56:43.337Z,13.45
2022-07-26T07:59:10.527Z,19.42
2022-07-26T08:01:40.599Z,15.20
2022-07-26T08:04:08.597Z,15.73
2022-07-26T08:06:35.543Z,16.55
2022-07-26T08:09:03.919Z,16.35
2022-07-26T08:11:33.829Z,12.10
2022-07-26T08:14:00.882Z,18.25
2022-07-26T08:16:27.505Z,12.02
2022-07-26T08:18:57.306Z,16.35
2022-07-26T08:21:28.130Z,19.48
2022-07-26T08:23:55.803Z,12.02
2022-07-26T08:26:22.363Z,12.23
2022-07-26T08:28:58.405Z,11.27
2022-07-26T08:31:28.194Z,14.55
2022-07-26T08:33:54.932Z,17.10
2022-07-26T08:36:21.459Z,14.02
2022-07-26T08:38:48.546Z,17.83
2022-07-26T08:41:16.968Z,9.80
2022-07-26T08:43:51.103Z,10.18
2022-07-26T08:46:26.861Z,12.30
2022-07-26T08:48:55.679Z,11.60
2022-07-26T08:51:24.322Z,10.02
2022-07-26T08:53:59.099Z,11.55
2022-07-26T08:56:30.532Z,13.73
2022-07-26T08:58:57.238Z,8.98
2022-07-26T09:01:23.876Z,9.52
2022-07-26T09:03:50.585Z,10.48
2022-07-26T09:06:19.975Z,7.55
2022-07-26T09:08:48.584Z,8.88
2022-07-26T09:11:33.434Z,7.85
2022-07-26T09:14:02.535Z,9.48
2022-07-26T09:16:37.272Z,8.43
2022-07-26T09:19:22.688Z,14.85
2022-07-26T09:21:50.204Z,11.60
2022-07-26T09:24:38.036Z,14.27
2022-07-26T09:27:06.810Z,13.50
2022-07-26T09:29:44.502Z,8.90
2022-07-26T09:32:19.254Z,9.85
2022-07-26T09:34:53.431Z,11.90
2022-07-26T09:37:34.062Z,9.25
2022-07-26T09:40:02.876Z,5.25
2022-07-26T09:42:30.083Z,7.28
2022-07-26T09:44:58.100Z,8.98
2022-07-26T09:47:38.135Z,13.45
2022-07-26T09:50:15.174Z,11.50
2022-07-26T09:52:58.025Z,6.95
2022-07-26T09:55:24.569Z,6.18
2022-07-26T09:57:53.234Z,7.28
2022-07-26T10:00:19.912Z,8.52
2022-07-26T10:02:46.583Z,5.50
2022-07-26T10:05:13.155Z,10.50
2022-07-26T10:07:39.844Z,8.10
2022-07-26T10:10:13.947Z,8.82
2022-07-26T10:12:44.113Z,10.20
2022-07-26T10:15:33.390Z,13.70
2022-07-26T10:18:00.066Z,9.32
2022-07-26T10:20:41.898Z,10.40
2022-07-26T10:23:37.188Z,7.55
2022-07-26T10:26:06.135Z,8.43
2022-07-26T10:28:36.454Z,5.28
2022-07-26T10:31:29.797Z,8.43
2022-07-26T10:33:59.114Z,12.18
2022-07-26T10:36:35.898Z,7.80
2022-07-26T10:39:08.409Z,4.80
2022-07-26T10:41:44.064Z,6.18
2022-07-26T10:44:14.956Z,7.35
2022-07-26T10:47:04.636Z,7.30
2022-07-26T10:49:45.300Z,5.90
2022-07-26T10:52:23.166Z,3.22
2022-07-26T10:55:04.718Z,4.20
2022-07-26T10:57:40.096Z,4.72
2022-07-26T11:00:26.585Z,4.43
2022-07-26T11:02:57.666Z,5.90
2022-07-26T11:08:10.581Z,4.25
2022-07-26T11:10:42.123Z,2.45
2022-07-26T11:13:17.156Z,5.20
2022-07-26T11:15:46.935Z,3.20
2022-07-26T11:18:19.228Z,3.88
2022-07-26T11:20:47.426Z,3.38
2022-07-26T11:23:28.920Z,2.97
2022-07-26T11:26:15.455Z,2.90
2022-07-26T11:29:04.013Z,2.75
2022-07-26T11:31:51.934Z,3.22
2022-07-26T11:34:27.441Z,2.45
2022-07-26T11:36:56.768Z,1.95
2022-07-26T11:39:34.368Z,5.30
2022-07-26T11:42:09.417Z,2.80
2022-07-26T11:44:36.396Z,2.17
2022-07-26T11:47:13.551Z,1.30
2022-07-26T11:50:00.893Z,3.25
2022-07-26T11:52:31.779Z,1.38
2022-07-26T11:54:58.666Z,2.97
2022-07-26T11:57:32.158Z,1.77
2022-07-26T11:59:59.999Z,2.67
2022-07-26T12:02:26.768Z,2.03
2022-07-26T12:05:30.677Z,2.92
2022-07-26T12:08:02.778Z,2.10
2022-07-26T12:10:29.913Z,1.65
2022-07-26T12:13:13.331Z,2.80
2022-07-26T12:15:48.101Z,1.52
2022-07-26T12:18:30.245Z,3.22
2022-07-26T12:21:05.111Z,1.55
2022-07-26T12:23:46.532Z,1.48
2022-07-26T12:26:23.439Z,0.82
2022-07-26T12:28:50.489Z,1.33
2022-07-26T12:31:30.171Z,0.95
2022-07-26T12:33:57.127Z,1.85
2022-07-26T12:36:28.139Z,1.40
2022-07-26T12:38:59.935Z,1.92
2022-07-26T12:41:39.967Z,2.17
2022-07-26T12:44:11.327Z,0.80
2022-07-26T12:46:38.710Z,1.58
2022-07-26T12:49:05.527Z,2.92
2022-07-26T12:51:32.270Z,1.77
2022-07-26T12:53:59.251Z,3.03
2022-07-26T12:56:25.797Z,2.72
2022-07-26T12:58:53.906Z,2.15
2022-07-26T13:01:20.570Z,1.08
2022-07-26T13:03:47.227Z,1.80
2022-07-26T13:06:13.865Z,1.75
2022-07-26T13:08:40.612Z,0.90
2022-07-26T13:11:07.246Z,1.30
2022-07-26T13:13:33.797Z,1.58
2022-07-26T13:16:00.316Z,2.28
2022-07-26T13:18:26.925Z,2.05
2022-07-26T13:20:53.602Z,2.45
2022-07-26T13:23:22.076Z,2.38
2022-07-26T13:25:53.365Z,3.33
2022-07-26T13:28:21.152Z,1.45
2022-07-26T13:30:47.737Z,1.65
2022-07-26T13:33:14.494Z,3.17
2022-07-26T13:35:42.435Z,1.58
2022-07-26T13:38:09.328Z,2.67
2022-07-26T13:40:36.172Z,3.15
2022-07-26T13:43:03.420Z,1.90
2022-07-26T13:45:30.163Z,7.45
2022-07-26T13:47:59.996Z,2.58
2022-07-26T13:50:27.794Z,2.92
2022-07-26T13:52:57.329Z,1.20
2022-07-26T13:55:24.935Z,5.13
2022-07-26T13:57:57.218Z,3.70
2022-07-26T14:00:29.185Z,1.40
2022-07-26T14:05:24.390Z,2.08
2022-07-26T14:07:50.989Z,4.30
2022-07-26T14:10:18.127Z,2.65
2022-07-26T14:12:44.784Z,2.67
2022-07-26T14:15:18.035Z,4.10
2022-07-26T14:17:47.242Z,5.63
2022-07-26T14:20:14.704Z,3.70
2022-07-26T14:22:41.263Z,4.90
2022-07-26T14:25:08.413Z,3.35
2022-07-26T14:27:34.935Z,3.13
2022-07-26T14:30:01.923Z,3.80
2022-07-26T14:32:28.438Z,5.38
2022-07-26T14:34:55.099Z,2.78
2022-07-26T14:37:43.649Z,2.45
2022-07-26T14:40:08.843Z,2.30
2022-07-26T14:42:35.455Z,3.65
2022-07-26T14:45:02.049Z,3.25
2022-07-26T14:47:28.554Z,3.28
2022-07-26T14:49:55.141Z,4.00
2022-07-26T14:52:22.225Z,1.67
2022-07-26T14:54:48.762Z,2.40
2022-07-26T14:57:15.335Z,0.52
2022-07-26T14:59:41.901Z,1.88
2022-07-26T15:02:09.837Z,2.72
2022-07-26T15:04:36.437Z,3.30
2022-07-26T15:07:03.047Z,3.13
2022-07-26T15:09:29.788Z,2.88
2022-07-26T15:11:56.372Z,0.73
2022-07-26T15:14:22.899Z,3.58
2022-07-26T15:16:49.446Z,2.88
2022-07-26T15:19:16.061Z,2.72
2022-07-26T15:21:43.860Z,2.90
2022-07-26T15:24:11.602Z,3.53
2022-07-26T15:26:38.601Z,3.38
2022-07-26T15:29:05.187Z,3.65
2022-07-26T15:31:37.357Z,2.75
2022-07-26T15:34:07.720Z,4.22
2022-07-26T15:36:34.553Z,2.53
2022-07-26T15:39:15.605Z,3.30
2022-07-26T15:41:43.045Z,3.30
2022-07-26T15:44:10.379Z,2.05
2022-07-26T15:46:39.047Z,2.25
2022-07-26T15:49:07.413Z,3.08
2022-07-26T15:51:34.468Z,2.22
2022-07-26T15:54:02.762Z,3.90
2022-07-26T15:56:29.324Z,3.22
2022-07-26T15:58:55.952Z,2.92
2022-07-26T16:01:22.529Z,1.52
2022-07-26T16:03:49.164Z,2.92
2022-07-26T16:06:15.715Z,2.47
2022-07-26T16:08:58.966Z,2.63
2022-07-26T16:11:29.611Z,1.35
2022-07-26T16:14:01.298Z,4.63
2022-07-26T16:16:29.688Z,3.03
2022-07-26T16:18:56.474Z,2.05
2022-07-26T16:21:23.080Z,3.90
2022-07-26T16:23:50.942Z,4.35
2022-07-26T16:26:18.185Z,3.80
2022-07-26T16:28:45.115Z,3.58
2022-07-26T16:31:11.873Z,3.75
2022-07-26T16:33:39.158Z,2.00
2022-07-26T16:36:13.973Z,2.33
2022-07-26T16:38:40.579Z,5.78
2022-07-26T16:41:07.173Z,2.42
2022-07-26T16:43:34.536Z,2.55
2022-07-26T16:46:01.182Z,2.30
2022-07-26T16:48:27.896Z,3.75
2022-07-26T16:50:54.664Z,2.92
2022-07-26T16:53:21.189Z,4.75
2022-07-26T16:55:49.579Z,4.63
2022-07-26T16:58:16.528Z,3.97
2022-07-26T17:00:43.160Z,6.68
2022-07-26T17:03:09.846Z,3.58
2022-07-26T17:05:36.438Z,6.05
2022-07-26T17:08:02.999Z,6.05
2022-07-26T17:10:29.559Z,2.53
2022-07-26T17:12:56.079Z,3.88
2022-07-26T17:15:22.687Z,3.25
2022-07-26T17:17:49.660Z,5.28
2022-07-26T17:20:16.515Z,7.13
2022-07-26T17:22:43.297Z,8.32
2022-07-26T17:25:10.123Z,6.47
2022-07-26T17:27:36.735Z,6.70
2022-07-26T17:30:07.193Z,4.10
2022-07-26T17:32:34.451Z,7.20
2022-07-26T17:35:01.183Z,6.68
2022-07-26T17:37:27.685Z,9.43
2022-07-26T17:39:55.377Z,11.57
2022-07-26T17:42:24.065Z,4.65
2022-07-26T17:44:51.458Z,6.38
2022-07-26T17:47:29.148Z,12.38
2022-07-26T17:52:48.124Z,5.38
2022-07-26T17:55:15.046Z,7.93
2022-07-26T17:57:42.352Z,5.53
2022-07-26T18:00:09.604Z,5.15
2022-07-26T18:02:36.214Z,6.28
2022-07-26T18:05:03.255Z,5.68
2022-07-26T18:07:30.083Z,7.38
2022-07-26T18:09:56.949Z,12.27
2022-07-26T18:12:23.552Z,5.95
2022-07-26T18:14:50.133Z,8.02
2022-07-26T18:17:16.687Z,8.07
2022-07-26T18:19:43.343Z,5.70
2022-07-26T18:22:09.854Z,9.15
2022-07-26T18:24:36.436Z,8.27
2022-07-26T18:27:03.014Z,12.35
2022-07-26T18:29:29.802Z,7.40
2022-07-26T18:32:00.083Z,9.40
2022-07-26T18:34:27.008Z,13.23
2022-07-26T18:36:54.038Z,8.85
2022-07-26T18:39:20.672Z,7.47
2022-07-26T18:41:47.271Z,8.57
2022-07-26T18:44:13.812Z,11.00
2022-07-26T18:46:40.497Z,6.15
2022-07-26T18:49:07.358Z,5.43
2022-07-26T18:51:34.231Z,7.32
2022-07-26T18:54:00.834Z,11.07
2022-07-26T18:56:27.432Z,7.55
2022-07-26T18:58:53.977Z,7.30
2022-07-26T19:01:20.602Z,14.13
2022-07-26T19:03:47.292Z,13.20
2022-07-26T19:06:14.005Z,8.70
2022-07-26T19:08:40.678Z,6.63
2022-07-26T19:11:07.225Z,9.52
2022-07-26T19:13:34.012Z,12.38
2022-07-26T19:16:00.606Z,13.40
2022-07-26T19:18:27.212Z,6.40
2022-07-26T19:20:53.743Z,10.85
2022-07-26T19:23:20.956Z,12.68
2022-07-26T19:25:47.599Z,8.30
2022-07-26T19:28:14.649Z,10.27
2022-07-26T19:30:42.036Z,7.05
2022-07-26T19:33:08.762Z,10.18
2022-07-26T19:35:35.681Z,11.82
2022-07-26T19:38:02.207Z,10.82
2022-07-26T19:40:30.201Z,7.60
2022-07-26T19:42:56.746Z,8.93
2022-07-26T19:45:23.288Z,8.60
2022-07-26T19:47:50.023Z,10.05
2022-07-26T19:50:16.602Z,13.55
2022-07-26T19:52:43.100Z,10.45
2022-07-26T19:55:10.050Z,7.40
2022-07-26T19:57:36.738Z,7.72
2022-07-26T20:00:07.368Z,12.25
2022-07-26T20:02:41.063Z,9.45
2022-07-26T20:05:11.527Z,8.98
2022-07-26T20:07:38.496Z,5.85
2022-07-26T20:10:05.771Z,9.35
2022-07-26T20:12:35.317Z,9.90
2022-07-26T20:15:02.251Z,12.40
2022-07-26T20:17:33.150Z,15.18
2022-07-26T20:19:59.805Z,4.85
2022-07-26T20:22:26.389Z,8.65
2022-07-26T20:24:56.066Z,9.70
2022-07-26T20:27:23.864Z,12.70
2022-07-26T20:29:51.318Z,6.28
2022-07-26T20:32:18.126Z,9.27
2022-07-26T20:34:44.670Z,8.43
2022-07-26T20:37:11.274Z,8.10
2022-07-26T20:39:38.249Z,8.20
2022-07-26T20:42:06.525Z,8.43
2022-07-26T20:44:36.091Z,6.97
2022-07-26T20:47:06.091Z,7.97
2022-07-26T20:49:32.722Z,9.73
2022-07-26T20:52:00.031Z,8.15
2022-07-26T20:54:26.575Z,5.90
2022-07-26T20:56:53.141Z,7.75
2022-07-26T20:59:19.827Z,8.77
2022-07-26T21:01:46.532Z,9.27
2022-07-26T21:04:13.257Z,3.38
2022-07-26T21:06:39.861Z,5.55
2022-07-26T21:09:09.528Z,7.22
2022-07-26T21:11:38.264Z,5.45
2022-07-26T21:14:05.071Z,3.70
2022-07-26T21:16:31.725Z,6.00
2022-07-26T21:18:58.356Z,6.18
2022-07-26T21:21:26.000Z,10.40
2022-07-26T21:23:52.625Z,6.57
2022-07-26T21:26:19.214Z,10.13
2022-07-26T21:28:45.890Z,4.85
2022-07-26T21:31:12.569Z,5.28
2022-07-26T21:33:39.124Z,8.65
2022-07-26T21:36:05.861Z,7.43
2022-07-26T21:38:33.370Z,10.27
2022-07-26T21:40:59.939Z,7.07
2022-07-26T21:43:26.683Z,7.55
2022-07-26T21:45:53.699Z,6.82
2022-07-26T21:48:21.339Z,8.50
2022-07-26T21:50:48.008Z,8.27
2022-07-26T21:53:14.759Z,13.50
2022-07-26T21:55:41.442Z,13.27
2022-07-26T21:58:08.029Z,6.40
2022-07-26T22:00:36.614Z,9.18
2022-07-26T22:03:03.732Z,4.85
2022-07-26T22:05:38.010Z,3.28
2022-07-26T22:08:09.796Z,6.93
2022-07-26T22:10:44.324Z,6.40
2022-07-26T22:13:12.033Z,5.90
2022-07-26T22:15:38.656Z,4.50
2022-07-26T22:18:05.520Z,3.13
2022-07-26T22:20:33.467Z,5.28
2022-07-26T22:23:05.870Z,5.18
2022-07-26T22:25:33.946Z,6.90
2022-07-26T22:28:01.496Z,6.38
2022-07-26T22:30:28.622Z,6.22
2022-07-26T22:32:56.438Z,8.90
2022-07-26T22:35:35.063Z,2.88
2022-07-26T22:38:05.695Z,6.47
2022-07-26T22:40:33.039Z,5.47
2022-07-26T22:42:59.930Z,7.28
2022-07-26T22:45:27.327Z,5.85
2022-07-26T22:47:56.332Z,6.72
2022-07-26T22:50:23.867Z,6.75
2022-07-26T22:52:51.927Z,5.72
2022-07-26T22:55:18.552Z,5.50
2022-07-26T22:57:45.293Z,8.35
2022-07-26T23:00:13.848Z,14.40
2022-07-26T23:02:40.651Z,5.47
2022-07-26T23:05:07.867Z,7.53
2022-07-26T23:07:35.624Z,7.50
2022-07-26T23:10:02.495Z,5.88
2022-07-26T23:12:29.367Z,6.45
2022-07-26T23:14:55.894Z,4.60
2022-07-26T23:17:22.420Z,6.43
2022-07-26T23:19:49.008Z,5.80
2022-07-26T23:22:15.522Z,5.15
2022-07-26T23:24:43.464Z,3.33
2022-07-26T23:27:10.326Z,5.82
2022-07-26T23:29:37.086Z,5.80
2022-07-26T23:32:03.723Z,7.03
2022-07-26T23:34:30.272Z,6.13
2022-07-26T23:36:56.815Z,6.97
2022-07-26T23:39:23.388Z,5.05
2022-07-26T23:41:49.945Z,4.60
2022-07-26T23:44:16.484Z,2.10
2022-07-26T23:46:43.085Z,6.63
2022-07-26T23:49:10.309Z,5.15
2022-07-26T23:51:38.749Z,8.82
2022-07-26T23:54:05.875Z,4.40
2022-07-26T23:56:32.417Z,7.03
2022-07-26T23:58:58.985Z,2.58
